sensor_id;sensor_type;location;lat;lon;timestamp;pressure;altitude;pressure_sealevel;temperature;humidity
48964;BME280;34776;48.180;16.420;2023-02-16T00:00:47;101112.19;;;0.40;78.75
48964;BME280;34776;48.180;16.420;2023-02-16T00:03:19;101114.75;;;0.35;78.82
48964;BME280;34776;48.180;16.420;2023-02-16T00:05:47;101108.63;;;0.35;78.96
48964;BME280;34776;48.180;16.420;2023-02-16T00:08:13;101108.63;;;0.33;78.94
48964;BME280;34776;48.180;16.420;2023-02-16T00:10:40;101116.44;;;0.30;79.08
48964;BME280;34776;48.180;16.420;2023-02-16T00:13:32;101118.09;;;0.24;79.02
48964;BME280;34776;48.180;16.420;2023-02-16T00:16:20;101117.22;;;0.25;79.11
48964;BME280;34776;48.180;16.420;2023-02-16T00:18:46;101120.72;;;0.24;79.09
48964;BME280;34776;48.180;16.420;2023-02-16T00:21:12;101125.91;;;0.20;78.98
48964;BME280;34776;48.180;16.420;2023-02-16T00:23:38;101118.06;;;0.19;79.16
48964;BME280;34776;48.180;16.420;2023-02-16T00:26:04;101122.38;;;0.18;79.19
48964;BME280;34776;48.180;16.420;2023-02-16T00:28:30;101113.66;;;0.16;79.02
48964;BME280;34776;48.180;16.420;2023-02-16T00:30:56;101113.63;;;0.13;79.11
48964;BME280;34776;48.180;16.420;2023-02-16T00:33:42;101110.97;;;0.10;78.88
48964;BME280;34776;48.180;16.420;2023-02-16T00:36:08;101117.09;;;0.12;78.83
48964;BME280;34776;48.180;16.420;2023-02-16T00:38:33;101115.28;;;0.08;78.61
48964;BME280;34776;48.180;16.420;2023-02-16T00:40:59;101118.78;;;0.07;78.81
48964;BME280;34776;48.180;16.420;2023-02-16T00:43:28;101110.06;;;0.07;78.86
48964;BME280;34776;48.180;16.420;2023-02-16T00:45:55;101110.03;;;0.05;78.86
48964;BME280;34776;48.180;16.420;2023-02-16T00:48:22;101116.94;;;0.02;78.79
48964;BME280;34776;48.180;16.420;2023-02-16T00:50:48;101111.72;;;0.00;78.58
48964;BME280;34776;48.180;16.420;2023-02-16T00:53:13;101106.44;;;-0.03;78.64
48964;BME280;34776;48.180;16.420;2023-02-16T00:55:40;101100.31;;;-0.05;78.79
48964;BME280;34776;48.180;16.420;2023-02-16T01:00:46;101102.84;;;-0.11;78.77
48964;BME280;34776;48.180;16.420;2023-02-16T01:03:15;101101.13;;;-0.09;78.64
48964;BME280;34776;48.180;16.420;2023-02-16T01:05:42;101093.31;;;-0.09;78.53
48964;BME280;34776;48.180;16.420;2023-02-16T01:08:12;101091.56;;;-0.10;78.55
48964;BME280;34776;48.180;16.420;2023-02-16T01:10:57;101083.66;;;-0.13;78.64
48964;BME280;34776;48.180;16.420;2023-02-16T01:13:42;101074.06;;;-0.16;78.65
48964;BME280;34776;48.180;16.420;2023-02-16T01:16:12;101074.94;;;-0.15;78.57
48964;BME280;34776;48.180;16.420;2023-02-16T01:18:37;101075.81;;;-0.15;78.38
48964;BME280;34776;48.180;16.420;2023-02-16T01:21:03;101074.09;;;-0.14;78.42
48964;BME280;34776;48.180;16.420;2023-02-16T01:23:28;101080.16;;;-0.15;78.48
48964;BME280;34776;48.180;16.420;2023-02-16T01:25:53;101067.97;;;-0.16;78.52
48964;BME280;34776;48.180;16.420;2023-02-16T01:28:23;101078.41;;;-0.16;78.42
48964;BME280;34776;48.180;16.420;2023-02-16T01:30:49;101079.25;;;-0.21;78.38
48964;BME280;34776;48.180;16.420;2023-02-16T01:33:15;101075.75;;;-0.19;78.60
48964;BME280;34776;48.180;16.420;2023-02-16T01:35:41;101073.13;;;-0.19;78.52
48964;BME280;34776;48.180;16.420;2023-02-16T01:38:17;101062.63;;;-0.27;78.71
48964;BME280;34776;48.180;16.420;2023-02-16T01:40:43;101063.41;;;-0.33;79.46
48964;BME280;34776;48.180;16.420;2023-02-16T01:43:21;101064.38;;;-0.25;78.88
48964;BME280;34776;48.180;16.420;2023-02-16T01:46:15;101058.22;;;-0.31;78.69
48964;BME280;34776;48.180;16.420;2023-02-16T01:48:43;101063.44;;;-0.30;78.88
48964;BME280;34776;48.180;16.420;2023-02-16T01:51:28;101051.19;;;-0.34;78.56
48964;BME280;34776;48.180;16.420;2023-02-16T01:54:13;101066.84;;;-0.34;78.56
48964;BME280;34776;48.180;16.420;2023-02-16T01:56:58;101059.06;;;-0.31;78.49
48964;BME280;34776;48.180;16.420;2023-02-16T01:59:57;101054.69;;;-0.32;78.67
48964;BME280;34776;48.180;16.420;2023-02-16T02:02:35;101047.75;;;-0.31;78.57
48964;BME280;34776;48.180;16.420;2023-02-16T02:05:20;101051.28;;;-0.26;78.62
48964;BME280;34776;48.180;16.420;2023-02-16T02:11:07;101041.69;;;-0.29;78.54
48964;BME280;34776;48.180;16.420;2023-02-16T02:16:00;101034.69;;;-0.30;78.65
48964;BME280;34776;48.180;16.420;2023-02-16T02:18:25;101039.91;;;-0.30;78.88
48964;BME280;34776;48.180;16.420;2023-02-16T02:26:45;101038.28;;;-0.22;79.02
48964;BME280;34776;48.180;16.420;2023-02-16T02:29:28;101047.06;;;-0.16;79.08
48964;BME280;34776;48.180;16.420;2023-02-16T02:37:43;101040.22;;;-0.05;79.40
48964;BME280;34776;48.180;16.420;2023-02-16T02:40:21;101042.91;;;-0.02;79.75
48964;BME280;34776;48.180;16.420;2023-02-16T02:43:25;101041.16;;;-0.02;79.67
48964;BME280;34776;48.180;16.420;2023-02-16T02:45:55;101036.88;;;0.05;79.68
48964;BME280;34776;48.180;16.420;2023-02-16T02:48:32;101044.72;;;0.08;79.99
48964;BME280;34776;48.180;16.420;2023-02-16T02:59:55;101043.38;;;0.46;80.47
48964;BME280;34776;48.180;16.420;2023-02-16T03:03:03;101030.44;;;0.59;80.41
48964;BME280;34776;48.180;16.420;2023-02-16T03:05:32;101032.25;;;0.65;79.87
48964;BME280;34776;48.180;16.420;2023-02-16T03:08:02;101036.59;;;0.66;79.97
48964;BME280;34776;48.180;16.420;2023-02-16T03:10:40;101032.25;;;0.67;79.74
48964;BME280;34776;48.180;16.420;2023-02-16T03:13:29;101032.22;;;0.64;79.71
48964;BME280;34776;48.180;16.420;2023-02-16T03:16:00;101026.06;;;0.57;79.76
48964;BME280;34776;48.180;16.420;2023-02-16T03:18:29;101027.78;;;0.53;79.89
48964;BME280;34776;48.180;16.420;2023-02-16T03:21:14;101029.44;;;0.48;81.01
48964;BME280;34776;48.180;16.420;2023-02-16T03:24:00;101036.63;;;0.69;80.65
48964;BME280;34776;48.180;16.420;2023-02-16T03:26:47;101033.22;;;0.79;80.22
48964;BME280;34776;48.180;16.420;2023-02-16T03:29:32;101029.81;;;0.90;80.26
48964;BME280;34776;48.180;16.420;2023-02-16T03:31:58;101035.13;;;0.97;80.06
48964;BME280;34776;48.180;16.420;2023-02-16T03:34:24;101032.53;;;1.04;80.10
48964;BME280;34776;48.180;16.420;2023-02-16T03:36:53;101032.59;;;1.13;80.16
48964;BME280;34776;48.180;16.420;2023-02-16T03:39:27;101038.75;;;1.19;79.83
48964;BME280;34776;48.180;16.420;2023-02-16T03:41:54;101041.44;;;1.27;79.76
48964;BME280;34776;48.180;16.420;2023-02-16T03:44:20;101033.63;;;1.33;79.42
48964;BME280;34776;48.180;16.420;2023-02-16T03:46:46;101032.75;;;1.37;79.36
48964;BME280;34776;48.180;16.420;2023-02-16T03:49:14;101032.81;;;1.44;79.20
48964;BME280;34776;48.180;16.420;2023-02-16T03:51:39;101030.19;;;1.47;79.22
48964;BME280;34776;48.180;16.420;2023-02-16T03:54:04;101032.81;;;1.47;79.10
48964;BME280;34776;48.180;16.420;2023-02-16T03:56:30;101030.19;;;1.48;79.16
48964;BME280;34776;48.180;16.420;2023-02-16T03:58:55;101032.00;;;1.54;79.14
48964;BME280;34776;48.180;16.420;2023-02-16T04:01:20;101033.75;;;1.58;78.97
48964;BME280;34776;48.180;16.420;2023-02-16T04:03:46;101025.06;;;1.62;78.96
48964;BME280;34776;48.180;16.420;2023-02-16T04:06:11;101032.03;;;1.65;78.85
48964;BME280;34776;48.180;16.420;2023-02-16T04:08:36;101034.66;;;1.69;78.78
48964;BME280;34776;48.180;16.420;2023-02-16T04:11:02;101032.94;;;1.68;78.99
48964;BME280;34776;48.180;16.420;2023-02-16T04:13:48;101032.06;;;1.74;78.90
48964;BME280;34776;48.180;16.420;2023-02-16T04:16:13;101032.06;;;1.71;79.05
48964;BME280;34776;48.180;16.420;2023-02-16T04:18:39;101031.16;;;1.67;79.19
48964;BME280;34776;48.180;16.420;2023-02-16T04:21:04;101025.97;;;1.73;79.20
48964;BME280;34776;48.180;16.420;2023-02-16T04:23:30;101020.75;;;1.79;79.27
48964;BME280;34776;48.180;16.420;2023-02-16T04:25:55;101015.50;;;1.82;79.41
48964;BME280;34776;48.180;16.420;2023-02-16T04:28:20;101022.50;;;1.83;79.19
48964;BME280;34776;48.180;16.420;2023-02-16T04:30:45;101026.03;;;1.87;79.32
48964;BME280;34776;48.180;16.420;2023-02-16T04:33:11;101025.16;;;1.85;79.33
48964;BME280;34776;48.180;16.420;2023-02-16T04:35:36;101013.75;;;1.78;79.33
48964;BME280;34776;48.180;16.420;2023-02-16T04:38:01;101025.94;;;1.67;79.69
48964;BME280;34776;48.180;16.420;2023-02-16T04:40:27;101027.63;;;1.59;79.85
48964;BME280;34776;48.180;16.420;2023-02-16T04:42:52;101015.38;;;1.50;79.63
48964;BME280;34776;48.180;16.420;2023-02-16T04:45:18;101025.78;;;1.39;79.47
48964;BME280;34776;48.180;16.420;2023-02-16T04:47:43;101027.50;;;1.31;79.55
48964;BME280;34776;48.180;16.420;2023-02-16T04:50:09;101026.56;;;1.23;79.66
48964;BME280;34776;48.180;16.420;2023-02-16T04:52:36;101019.50;;;1.11;79.72
48964;BME280;34776;48.180;16.420;2023-02-16T04:55:01;101028.19;;;1.06;79.78
48964;BME280;34776;48.180;16.420;2023-02-16T04:57:27;101034.25;;;1.00;79.90
48964;BME280;34776;48.180;16.420;2023-02-16T04:59:52;101029.00;;;0.95;80.12
48964;BME280;34776;48.180;16.420;2023-02-16T05:02:17;101026.34;;;0.94;80.29
48964;BME280;34776;48.180;16.420;2023-02-16T05:04:43;101021.13;;;0.91;80.50
48964;BME280;34776;48.180;16.420;2023-02-16T05:07:08;101021.06;;;0.88;80.31
48964;BME280;34776;48.180;16.420;2023-02-16T05:09:34;101028.91;;;0.83;80.33
48964;BME280;34776;48.180;16.420;2023-02-16T05:11:59;101033.22;;;0.79;80.47
48964;BME280;34776;48.180;16.420;2023-02-16T05:14:43;101021.00;;;0.77;80.57
48964;BME280;34776;48.180;16.420;2023-02-16T05:17:21;101017.47;;;0.72;80.67
48964;BME280;34776;48.180;16.420;2023-02-16T05:19:49;101013.09;;;0.71;80.68
48964;BME280;34776;48.180;16.420;2023-02-16T05:22:16;101018.31;;;0.68;80.77
48964;BME280;34776;48.180;16.420;2023-02-16T05:24:42;101019.19;;;0.68;80.87
48964;BME280;34776;48.180;16.420;2023-02-16T05:27:11;101020.09;;;0.72;80.97
48964;BME280;34776;48.180;16.420;2023-02-16T05:29:37;101021.88;;;0.79;81.08
48964;BME280;34776;48.180;16.420;2023-02-16T05:32:02;101022.84;;;0.89;81.19
48964;BME280;34776;48.180;16.420;2023-02-16T05:34:27;101018.56;;;0.97;81.30
48964;BME280;34776;48.180;16.420;2023-02-16T05:36:53;101020.34;;;1.06;81.28
48964;BME280;34776;48.180;16.420;2023-02-16T05:39:20;101020.41;;;1.15;81.27
48964;BME280;34776;48.180;16.420;2023-02-16T05:41:45;101022.22;;;1.25;81.18
48964;BME280;34776;48.180;16.420;2023-02-16T05:44:11;101031.00;;;1.30;80.89
48964;BME280;34776;48.180;16.420;2023-02-16T05:46:38;101029.25;;;1.35;80.72
48964;BME280;34776;48.180;16.420;2023-02-16T05:49:05;101030.16;;;1.40;80.53
48964;BME280;34776;48.180;16.420;2023-02-16T05:51:30;101027.56;;;1.44;80.42
48964;BME280;34776;48.180;16.420;2023-02-16T05:53:56;101027.56;;;1.47;80.24
48964;BME280;34776;48.180;16.420;2023-02-16T05:56:22;101025.00;;;1.51;80.29
48964;BME280;34776;48.180;16.420;2023-02-16T05:58:48;101031.97;;;1.52;80.03
48964;BME280;34776;48.180;16.420;2023-02-16T06:01:14;101027.63;;;1.56;80.07
48964;BME280;34776;48.180;16.420;2023-02-16T06:03:39;101025.03;;;1.60;79.91
48964;BME280;34776;48.180;16.420;2023-02-16T06:06:05;101025.03;;;1.65;80.06
48964;BME280;34776;48.180;16.420;2023-02-16T06:19:40;101017.31;;;1.96;79.95
48964;BME280;34776;48.180;16.420;2023-02-16T06:22:05;101017.34;;;2.02;79.83
48964;BME280;34776;48.180;16.420;2023-02-16T06:30:08;101033.13;;;2.19;79.21
48964;BME280;34776;48.180;16.420;2023-02-16T06:32:34;101030.47;;;2.16;79.23
48964;BME280;34776;48.180;16.420;2023-02-16T06:34:59;101030.50;;;2.22;79.19
48964;BME280;34776;48.180;16.420;2023-02-16T06:37:25;101034.88;;;2.31;79.21
48964;BME280;34776;48.180;16.420;2023-02-16T06:42:39;101028.78;;;2.47;78.92
48964;BME280;34776;48.180;16.420;2023-02-16T06:45:05;101029.69;;;2.52;78.62
48964;BME280;34776;48.180;16.420;2023-02-16T06:47:30;101027.06;;;2.58;78.35
48964;BME280;34776;48.180;16.420;2023-02-16T06:49:56;101022.69;;;2.65;78.38
48964;BME280;34776;48.180;16.420;2023-02-16T06:52:21;101030.53;;;2.67;78.11
48964;BME280;34776;48.180;16.420;2023-02-16T06:54:46;101034.91;;;2.71;77.85
48964;BME280;34776;48.180;16.420;2023-02-16T06:57:13;101047.19;;;2.72;77.56
48964;BME280;34776;48.180;16.420;2023-02-16T06:59:38;101045.44;;;2.68;77.82
48964;BME280;34776;48.180;16.420;2023-02-16T07:02:04;101050.66;;;2.64;77.86
48964;BME280;34776;48.180;16.420;2023-02-16T07:04:29;101049.78;;;2.69;77.94
48964;BME280;34776;48.180;16.420;2023-02-16T07:06:54;101053.31;;;2.77;77.87
48964;BME280;34776;48.180;16.420;2023-02-16T07:09:20;101050.69;;;2.86;77.69
48964;BME280;34776;48.180;16.420;2023-02-16T07:11:45;101053.31;;;2.97;77.62
48964;BME280;34776;48.180;16.420;2023-02-16T07:14:10;101053.31;;;3.08;77.40
48964;BME280;34776;48.180;16.420;2023-02-16T07:16:36;101039.28;;;3.15;76.96
48964;BME280;34776;48.180;16.420;2023-02-16T07:19:01;101041.91;;;3.24;76.78
48964;BME280;34776;48.180;16.420;2023-02-16T07:21:27;101046.25;;;3.30;76.55
48964;BME280;34776;48.180;16.420;2023-02-16T07:23:52;101046.28;;;3.34;76.33
48964;BME280;34776;48.180;16.420;2023-02-16T07:26:18;101043.66;;;3.31;76.03
48964;BME280;34776;48.180;16.420;2023-02-16T07:28:43;101049.78;;;3.27;75.66
48964;BME280;34776;48.180;16.420;2023-02-16T07:31:11;101047.19;;;3.25;75.75
48964;BME280;34776;48.180;16.420;2023-02-16T07:33:37;101040.16;;;3.20;75.83
48964;BME280;34776;48.180;16.420;2023-02-16T07:39:00;101041.00;;;3.37;75.89
48964;BME280;34776;48.180;16.420;2023-02-16T07:41:26;101042.75;;;3.43;75.58
48964;BME280;34776;48.180;16.420;2023-02-16T07:43:52;101037.50;;;3.49;75.54
48964;BME280;34776;48.180;16.420;2023-02-16T07:46:17;101038.31;;;3.65;75.41
48964;BME280;34776;48.180;16.420;2023-02-16T07:48:46;101033.88;;;3.79;75.20
48964;BME280;34776;48.180;16.420;2023-02-16T07:51:11;101028.56;;;3.90;74.81
48964;BME280;34776;48.180;16.420;2023-02-16T07:53:37;101026.72;;;4.12;74.40
48964;BME280;34776;48.180;16.420;2023-02-16T07:56:02;101023.97;;;4.34;73.77
48964;BME280;34776;48.180;16.420;2023-02-16T07:58:28;101031.81;;;4.38;72.86
48964;BME280;34776;48.180;16.420;2023-02-16T08:01:10;101035.31;;;4.43;72.44
48964;BME280;34776;48.180;16.420;2023-02-16T08:03:36;101036.19;;;4.41;72.23
48964;BME280;34776;48.180;16.420;2023-02-16T08:06:03;101027.44;;;4.36;71.74
48964;BME280;34776;48.180;16.420;2023-02-16T08:08:28;101018.66;;;4.38;71.92
48964;BME280;34776;48.180;16.420;2023-02-16T08:10:54;101030.84;;;4.53;72.05
48964;BME280;34776;48.180;16.420;2023-02-16T08:13:21;101036.97;;;4.55;71.23
48964;BME280;34776;48.180;16.420;2023-02-16T08:15:46;101030.75;;;4.65;71.18
48964;BME280;34776;48.180;16.420;2023-02-16T08:18:12;101032.25;;;4.97;70.60
48964;BME280;34776;48.180;16.420;2023-02-16T08:20:37;101032.06;;;5.19;70.22
48964;BME280;34776;48.180;16.420;2023-02-16T08:23:03;101033.69;;;5.34;69.29
48964;BME280;34776;48.180;16.420;2023-02-16T08:25:32;101036.88;;;5.65;68.88
48964;BME280;34776;48.180;16.420;2023-02-16T08:27:57;101031.75;;;6.22;68.47
48964;BME280;34776;48.180;16.420;2023-02-16T08:30:22;101038.09;;;6.71;67.16
48964;BME280;34776;48.180;16.420;2023-02-16T08:32:49;101045.44;;;7.06;66.09
48964;BME280;34776;48.180;16.420;2023-02-16T08:35:16;101046.41;;;7.50;66.07
48964;BME280;34776;48.180;16.420;2023-02-16T08:37:42;101036.91;;;8.66;63.58
48964;BME280;34776;48.180;16.420;2023-02-16T08:40:10;101038.84;;;9.30;61.46
48964;BME280;34776;48.180;16.420;2023-02-16T08:45:05;101034.88;;;8.78;60.47
48964;BME280;34776;48.180;16.420;2023-02-16T08:47:31;101030.94;;;9.28;60.37
48964;BME280;34776;48.180;16.420;2023-02-16T08:49:58;101033.22;;;9.42;58.98
48964;BME280;34776;48.180;16.420;2023-02-16T08:52:23;101036.38;;;9.57;58.75
48964;BME280;34776;48.180;16.420;2023-02-16T08:54:49;101025.63;;;9.92;57.25
48964;BME280;34776;48.180;16.420;2023-02-16T08:57:14;101038.91;;;9.92;57.17
48964;BME280;34776;48.180;16.420;2023-02-16T08:59:40;101031.28;;;10.10;56.12
48964;BME280;34776;48.180;16.420;2023-02-16T09:02:05;101035.53;;;10.47;56.12
48964;BME280;34776;48.180;16.420;2023-02-16T09:04:32;101031.16;;;11.76;54.88
48964;BME280;34776;48.180;16.420;2023-02-16T09:06:57;101039.03;;;13.14;51.83
48964;BME280;34776;48.180;16.420;2023-02-16T09:09:25;101036.63;;;13.71;50.51
48964;BME280;34776;48.180;16.420;2023-02-16T09:11:50;101036.22;;;13.99;49.72
48964;BME280;34776;48.180;16.420;2023-02-16T09:14:17;101034.34;;;14.01;48.97
48964;BME280;34776;48.180;16.420;2023-02-16T09:16:42;101039.25;;;14.11;48.71
48964;BME280;34776;48.180;16.420;2023-02-16T09:19:11;101036.03;;;13.84;48.02
48964;BME280;34776;48.180;16.420;2023-02-16T09:21:38;101040.44;;;13.45;47.97
48964;BME280;34776;48.180;16.420;2023-02-16T09:24:04;101039.59;;;13.23;49.26
48964;BME280;34776;48.180;16.420;2023-02-16T09:26:32;101040.16;;;13.51;48.11
48964;BME280;34776;48.180;16.420;2023-02-16T09:28:59;101037.22;;;13.57;48.04
48964;BME280;34776;48.180;16.420;2023-02-16T09:31:31;101033.53;;;13.60;48.11
48964;BME280;34776;48.180;16.420;2023-02-16T09:34:02;101036.47;;;13.54;48.10
48964;BME280;34776;48.180;16.420;2023-02-16T09:36:28;101036.00;;;13.65;48.24
48964;BME280;34776;48.180;16.420;2023-02-16T09:38:54;101037.59;;;13.69;47.83
48964;BME280;34776;48.180;16.420;2023-02-16T09:47:25;101027.84;;;13.06;45.94
48964;BME280;34776;48.180;16.420;2023-02-16T09:49:54;101031.50;;;13.04;49.06
48964;BME280;34776;48.180;16.420;2023-02-16T09:52:38;101023.84;;;12.52;47.34
48964;BME280;34776;48.180;16.420;2023-02-16T09:55:13;101023.75;;;12.31;48.79
48964;BME280;34776;48.180;16.420;2023-02-16T09:58:00;101023.25;;;11.98;48.46
48964;BME280;34776;48.180;16.420;2023-02-16T10:08:48;101011.44;;;10.80;50.17
48964;BME280;34776;48.180;16.420;2023-02-16T10:14:13;101014.94;;;10.24;50.36
48964;BME280;34776;48.180;16.420;2023-02-16T10:22:14;101013.16;;;9.94;51.55
48964;BME280;34776;48.180;16.420;2023-02-16T10:24:46;101006.56;;;9.78;52.04
48964;BME280;34776;48.180;16.420;2023-02-16T10:27:15;100998.41;;;9.84;51.92
48964;BME280;34776;48.180;16.420;2023-02-16T10:29:41;100995.78;;;9.84;51.53
48964;BME280;34776;48.180;16.420;2023-02-16T10:32:31;100997.09;;;9.69;51.48
48964;BME280;34776;48.180;16.420;2023-02-16T10:35:16;100993.41;;;9.75;51.07
48964;BME280;34776;48.180;16.420;2023-02-16T10:38:03;100990.22;;;9.62;51.04
48964;BME280;34776;48.180;16.420;2023-02-16T10:46:24;101001.66;;;9.33;52.09
48964;BME280;34776;48.180;16.420;2023-02-16T10:48:51;100996.38;;;9.31;52.04
48964;BME280;34776;48.180;16.420;2023-02-16T10:51:18;100989.44;;;9.26;51.93
48964;BME280;34776;48.180;16.420;2023-02-16T10:53:55;100988.97;;;9.11;52.25
48964;BME280;34776;48.180;16.420;2023-02-16T10:59:16;100973.94;;;9.10;52.62
48964;BME280;34776;48.180;16.420;2023-02-16T11:01:45;100973.47;;;9.29;52.74
48964;BME280;34776;48.180;16.420;2023-02-16T11:04:33;100962.53;;;9.41;51.78
48964;BME280;34776;48.180;16.420;2023-02-16T11:07:09;100955.28;;;9.46;52.40
48964;BME280;34776;48.180;16.420;2023-02-16T11:09:36;100949.50;;;9.63;51.92
48964;BME280;34776;48.180;16.420;2023-02-16T11:12:28;100954.66;;;9.68;51.41
48964;BME280;34776;48.180;16.420;2023-02-16T11:15:42;100943.19;;;9.67;51.89
48964;BME280;34776;48.180;16.420;2023-02-16T11:18:05;100944.78;;;9.73;51.72
48964;BME280;34776;48.180;16.420;2023-02-16T11:25:40;100936.66;;;9.79;52.02
48964;BME280;34776;48.180;16.420;2023-02-16T11:28:05;100943.09;;;9.70;52.16
48964;BME280;34776;48.180;16.420;2023-02-16T11:30:35;100933.38;;;9.69;52.13
48964;BME280;34776;48.180;16.420;2023-02-16T11:33:09;100935.50;;;9.88;52.27
48964;BME280;34776;48.180;16.420;2023-02-16T11:35:43;100934.13;;;10.04;51.77
48964;BME280;34776;48.180;16.420;2023-02-16T11:38:29;100930.78;;;9.98;50.61
48964;BME280;34776;48.180;16.420;2023-02-16T11:40:56;100921.19;;;9.93;51.81
48964;BME280;34776;48.180;16.420;2023-02-16T11:43:25;100913.03;;;10.00;52.01
48964;BME280;34776;48.180;16.420;2023-02-16T11:46:02;100913.03;;;10.00;51.73
48964;BME280;34776;48.180;16.420;2023-02-16T11:48:29;100906.59;;;10.07;50.63
48964;BME280;34776;48.180;16.420;2023-02-16T11:51:01;100906.47;;;10.10;51.60
48964;BME280;34776;48.180;16.420;2023-02-16T11:53:50;100906.34;;;10.14;51.11
48964;BME280;34776;48.180;16.420;2023-02-16T11:56:25;100900.66;;;10.27;51.37
48964;BME280;34776;48.180;16.420;2023-02-16T12:12:18;100879.56;;;10.49;51.73
48964;BME280;34776;48.180;16.420;2023-02-16T12:17:55;100873.06;;;10.83;51.08
48964;BME280;34776;48.180;16.420;2023-02-16T12:20:48;100862.44;;;10.83;50.37
48964;BME280;34776;48.180;16.420;2023-02-16T12:23:39;100858.41;;;10.96;50.02
48964;BME280;34776;48.180;16.420;2023-02-16T12:31:46;100861.38;;;10.63;50.63
48964;BME280;34776;48.180;16.420;2023-02-16T12:34:37;100849.91;;;10.61;50.62
48964;BME280;34776;48.180;16.420;2023-02-16T12:37:27;100842.59;;;10.68;51.53
48964;BME280;34776;48.180;16.420;2023-02-16T12:43:08;100830.97;;;10.45;51.36
48964;BME280;34776;48.180;16.420;2023-02-16T12:45:41;100826.75;;;10.40;51.51
48964;BME280;34776;48.180;16.420;2023-02-16T12:48:17;100820.44;;;10.42;51.75
48964;BME280;34776;48.180;16.420;2023-02-16T12:50:44;100824.84;;;10.43;51.74
48964;BME280;34776;48.180;16.420;2023-02-16T12:53:22;100822.34;;;10.39;51.84
48964;BME280;34776;48.180;16.420;2023-02-16T12:56:11;100816.34;;;10.59;52.03
48964;BME280;34776;48.180;16.420;2023-02-16T12:58:43;100818.06;;;10.85;51.78
48964;BME280;34776;48.180;16.420;2023-02-16T13:01:14;100822.25;;;10.92;51.11
48964;BME280;34776;48.180;16.420;2023-02-16T13:03:46;100802.00;;;10.88;50.91
48964;BME280;34776;48.180;16.420;2023-02-16T13:11:37;100804.38;;;10.70;51.43
48964;BME280;34776;48.180;16.420;2023-02-16T13:14:12;100806.00;;;10.74;51.39
48964;BME280;34776;48.180;16.420;2023-02-16T13:19:18;100803.47;;;10.71;51.22
48964;BME280;34776;48.180;16.420;2023-02-16T13:22:11;100799.50;;;10.58;51.68
48964;BME280;34776;48.180;16.420;2023-02-16T13:28:02;100778.25;;;10.58;50.84
48964;BME280;34776;48.180;16.420;2023-02-16T13:35:31;100784.31;;;10.36;51.85
48964;BME280;34776;48.180;16.420;2023-02-16T13:43:41;100775.44;;;9.84;52.41
48964;BME280;34776;48.180;16.420;2023-02-16T13:46:24;100773.09;;;9.75;52.94
48964;BME280;34776;48.180;16.420;2023-02-16T13:48:51;100776.81;;;9.69;53.28
48964;BME280;34776;48.180;16.420;2023-02-16T13:51:19;100779.41;;;9.71;53.38
48964;BME280;34776;48.180;16.420;2023-02-16T13:54:04;100773.63;;;9.58;53.32
48964;BME280;34776;48.180;16.420;2023-02-16T13:56:35;100780.00;;;9.52;53.47
48964;BME280;34776;48.180;16.420;2023-02-16T14:01:58;100781.66;;;9.28;53.82
48964;BME280;34776;48.180;16.420;2023-02-16T14:09:47;100777.75;;;9.10;54.35
48964;BME280;34776;48.180;16.420;2023-02-16T14:12:19;100780.63;;;9.03;54.46
48964;BME280;34776;48.180;16.420;2023-02-16T14:22:51;100769.00;;;8.77;55.52
48964;BME280;34776;48.180;16.420;2023-02-16T14:28:01;100768.25;;;8.73;55.76
48964;BME280;34776;48.180;16.420;2023-02-16T14:35:38;100780.22;;;8.54;56.29
48964;BME280;34776;48.180;16.420;2023-02-16T14:38:29;100783.34;;;8.36;56.89
48964;BME280;34776;48.180;16.420;2023-02-16T14:41:00;100778.09;;;8.34;57.08
48964;BME280;34776;48.180;16.420;2023-02-16T14:43:32;100783.53;;;8.29;57.24
48964;BME280;34776;48.180;16.420;2023-02-16T14:51:50;100762.34;;;8.29;58.01
48964;BME280;34776;48.180;16.420;2023-02-16T14:57:32;100766.16;;;8.19;57.73
48964;BME280;34776;48.180;16.420;2023-02-16T15:02:38;100762.56;;;8.20;58.07
48964;BME280;34776;48.180;16.420;2023-02-16T15:05:19;100750.19;;;8.21;58.20
48964;BME280;34776;48.180;16.420;2023-02-16T15:07:51;100754.63;;;8.20;58.02
48964;BME280;34776;48.180;16.420;2023-02-16T15:10:23;100758.06;;;8.24;58.15
48964;BME280;34776;48.180;16.420;2023-02-16T15:12:54;100747.50;;;8.22;58.14
48964;BME280;34776;48.180;16.420;2023-02-16T15:15:25;100750.56;;;8.07;58.77
48964;BME280;34776;48.180;16.420;2023-02-16T15:17:54;100751.56;;;8.03;58.79
48964;BME280;34776;48.180;16.420;2023-02-16T15:20:27;100735.72;;;8.01;58.99
48964;BME280;34776;48.180;16.420;2023-02-16T15:22:56;100739.22;;;8.02;58.91
48964;BME280;34776;48.180;16.420;2023-02-16T15:25:30;100747.25;;;7.99;59.09
48964;BME280;34776;48.180;16.420;2023-02-16T15:28:16;100745.59;;;7.95;59.30
48964;BME280;34776;48.180;16.420;2023-02-16T15:30:48;100748.44;;;7.87;59.28
48964;BME280;34776;48.180;16.420;2023-02-16T15:35:51;100744.25;;;7.78;59.47
48964;BME280;34776;48.180;16.420;2023-02-16T15:40:45;100743.16;;;7.49;60.13
48964;BME280;34776;48.180;16.420;2023-02-16T15:43:36;100743.53;;;7.34;60.77
48964;BME280;34776;48.180;16.420;2023-02-16T15:46:05;100743.75;;;7.25;60.79
48964;BME280;34776;48.180;16.420;2023-02-16T15:48:35;100749.19;;;7.19;61.13
48964;BME280;34776;48.180;16.420;2023-02-16T15:51:09;100746.59;;;7.16;61.20
48964;BME280;34776;48.180;16.420;2023-02-16T15:53:42;100752.00;;;7.09;61.37
48964;BME280;34776;48.180;16.420;2023-02-16T15:56:21;100751.47;;;6.95;61.98
48964;BME280;34776;48.180;16.420;2023-02-16T15:58:49;100748.16;;;6.84;62.15
48964;BME280;34776;48.180;16.420;2023-02-16T16:01:25;100736.84;;;6.77;62.42
48964;BME280;34776;48.180;16.420;2023-02-16T16:03:58;100749.25;;;6.74;62.28